createdAt,value
2023-03-26T00:00:13.481Z,8.80
2023-03-26T00:00:34.553Z,7.10
2023-03-26T00:00:55.602Z,7.70
2023-03-26T00:01:16.665Z,9.50
2023-03-26T00:01:37.773Z,10.00
2023-03-26T00:01:58.833Z,9.30
2023-03-26T00:02:19.958Z,7.80
2023-03-26T00:02:41.073Z,7.60
2023-03-26T00:03:02.248Z,6.70
2023-03-26T00:03:23.300Z,8.50
2023-03-26T00:03:44.365Z,10.10
2023-03-26T00:04:07.218Z,6.40
2023-03-26T00:04:28.280Z,4.00
2023-03-26T00:04:49.350Z,2.70
2023-03-26T00:05:10.421Z,3.40
2023-03-26T00:05:31.551Z,3.00
2023-03-26T00:05:52.834Z,5.60
2023-03-26T00:06:13.961Z,9.40
2023-03-26T00:06:34.999Z,9.20
2023-03-26T00:06:56.054Z,5.00
2023-03-26T00:07:17.109Z,3.60
2023-03-26T00:07:38.162Z,3.30
2023-03-26T00:07:59.247Z,3.70
2023-03-26T00:08:20.304Z,5.70
2023-03-26T00:08:41.379Z,7.90
2023-03-26T00:09:02.441Z,6.10
2023-03-26T00:09:25.216Z,4.10
2023-03-26T00:09:46.254Z,2.70
2023-03-26T00:10:07.311Z,3.30
2023-03-26T00:10:28.378Z,4.30
2023-03-26T00:10:49.447Z,2.90
2023-03-26T00:11:10.514Z,1.70
2023-03-26T00:11:31.564Z,1.60
2023-03-26T00:11:52.624Z,2.00
2023-03-26T00:12:13.671Z,1.90
2023-03-26T00:12:34.737Z,1.50
2023-03-26T00:12:55.833Z,1.80
2023-03-26T00:13:16.857Z,1.70
2023-03-26T00:13:37.913Z,1.80
2023-03-26T00:13:59.011Z,1.80
2023-03-26T00:14:20.046Z,2.10
2023-03-26T00:14:42.692Z,1.70
2023-03-26T00:15:03.764Z,1.50
2023-03-26T00:15:24.811Z,1.40
2023-03-26T00:15:45.901Z,1.40
2023-03-26T00:16:06.964Z,1.40
2023-03-26T00:16:28.045Z,1.10
2023-03-26T00:16:49.168Z,1.10
2023-03-26T00:17:10.266Z,1.30
2023-03-26T00:17:31.354Z,1.60
2023-03-26T00:17:52.427Z,1.60
2023-03-26T00:18:13.456Z,1.20
2023-03-26T00:18:34.517Z,1.20
2023-03-26T00:18:55.567Z,1.00
2023-03-26T00:19:16.628Z,0.90
2023-03-26T00:19:37.670Z,1.40
2023-03-26T00:20:01.032Z,1.00
2023-03-26T00:20:22.075Z,0.90
2023-03-26T00:20:43.106Z,1.10
2023-03-26T00:21:04.156Z,1.20
2023-03-26T00:21:25.442Z,1.20
2023-03-26T00:21:46.509Z,1.40
2023-03-26T00:22:07.554Z,1.20
2023-03-26T00:22:28.612Z,1.70
2023-03-26T00:22:49.671Z,1.60
2023-03-26T00:23:10.728Z,1.00
2023-03-26T00:23:31.791Z,1.10
2023-03-26T00:23:52.885Z,1.30
2023-03-26T00:24:13.933Z,1.10
2023-03-26T00:24:34.985Z,1.10
2023-03-26T00:24:56.114Z,1.20
2023-03-26T00:25:18.692Z,1.10
2023-03-26T00:25:39.737Z,1.20
2023-03-26T00:26:00.806Z,1.20
2023-03-26T00:26:21.852Z,1.20
2023-03-26T00:26:42.912Z,1.30
2023-03-26T00:27:03.996Z,1.50
2023-03-26T00:27:25.055Z,1.30
2023-03-26T00:27:46.099Z,1.40
2023-03-26T00:28:07.151Z,1.50
2023-03-26T00:28:28.236Z,1.40
2023-03-26T00:28:49.269Z,1.40
2023-03-26T00:29:10.324Z,1.40
2023-03-26T00:29:31.374Z,1.30
2023-03-26T00:29:52.423Z,1.50
2023-03-26T00:30:13.492Z,1.50
2023-03-26T00:30:36.203Z,1.70
2023-03-26T00:30:57.365Z,1.50
2023-03-26T00:31:18.511Z,1.60
2023-03-26T00:31:39.539Z,1.50
2023-03-26T00:32:00.602Z,1.70
2023-03-26T00:32:21.643Z,1.60
2023-03-26T00:32:42.760Z,1.70
2023-03-26T00:33:03.807Z,1.40
2023-03-26T00:33:24.840Z,1.50
2023-03-26T00:33:45.906Z,1.50
2023-03-26T00:34:06.958Z,1.70
2023-03-26T00:34:28.045Z,1.60
2023-03-26T00:34:49.091Z,1.30
2023-03-26T00:35:10.170Z,1.30
2023-03-26T00:35:31.227Z,1.30
2023-03-26T00:35:54.627Z,1.40
2023-03-26T00:36:15.825Z,1.90
2023-03-26T00:36:36.890Z,1.60
2023-03-26T00:36:57.925Z,1.40
2023-03-26T00:37:18.980Z,1.30
2023-03-26T00:37:40.024Z,1.40
2023-03-26T00:38:01.090Z,1.50
2023-03-26T00:38:22.146Z,1.60
2023-03-26T00:38:43.225Z,1.50
2023-03-26T00:39:04.251Z,1.30
2023-03-26T00:39:25.305Z,1.50
2023-03-26T00:39:46.379Z,1.70
2023-03-26T00:40:07.438Z,1.70
2023-03-26T00:40:28.550Z,1.40
2023-03-26T00:40:49.581Z,1.30
2023-03-26T00:41:12.237Z,1.30
2023-03-26T00:41:33.305Z,1.40
2023-03-26T00:41:54.703Z,1.30
2023-03-26T00:42:15.889Z,1.60
2023-03-26T00:42:36.955Z,1.40
2023-03-26T00:42:57.998Z,1.30
2023-03-26T00:43:19.108Z,1.30
2023-03-26T00:43:40.167Z,1.20
2023-03-26T00:44:01.248Z,1.10
2023-03-26T00:44:22.260Z,1.20
2023-03-26T00:44:43.319Z,1.40
2023-03-26T00:45:04.376Z,1.20
2023-03-26T00:45:25.467Z,1.30
2023-03-26T00:45:46.542Z,1.50
2023-03-26T00:46:07.630Z,1.40
2023-03-26T00:46:30.777Z,1.60
2023-03-26T00:46:51.908Z,1.40
2023-03-26T00:47:12.968Z,1.30
2023-03-26T00:47:34.053Z,1.20
2023-03-26T00:47:55.123Z,1.30
2023-03-26T00:48:16.188Z,1.30
2023-03-26T00:48:45.085Z,1.40
2023-03-26T00:49:04.255Z,1.40
2023-03-26T00:49:25.265Z,1.20
2023-03-26T00:49:46.329Z,1.40
2023-03-26T00:50:07.383Z,1.60
2023-03-26T00:50:28.440Z,1.40
2023-03-26T00:50:49.499Z,1.30
2023-03-26T00:51:10.526Z,1.30
2023-03-26T00:51:33.439Z,1.10
2023-03-26T00:51:54.487Z,1.00
2023-03-26T00:52:15.554Z,1.20
2023-03-26T00:52:36.604Z,1.50
2023-03-26T00:52:57.653Z,1.20
2023-03-26T00:53:18.741Z,1.30
2023-03-26T00:53:39.791Z,1.20
2023-03-26T00:54:00.859Z,1.30
2023-03-26T00:54:21.905Z,1.30
2023-03-26T00:54:42.983Z,1.20
2023-03-26T00:55:04.007Z,1.20
2023-03-26T00:55:25.086Z,1.20
2023-03-26T00:55:46.185Z,1.20
2023-03-26T00:56:07.260Z,1.20
2023-03-26T00:56:28.296Z,1.20
2023-03-26T00:56:51.233Z,1.40
2023-03-26T00:57:12.932Z,1.30
2023-03-26T00:57:36.463Z,1.10
2023-03-26T00:57:57.574Z,1.30
2023-03-26T00:58:18.637Z,1.40
2023-03-26T00:58:39.702Z,1.40
2023-03-26T00:59:00.765Z,1.30
2023-03-26T00:59:21.822Z,1.00
2023-03-26T00:59:42.870Z,1.20
2023-03-26T01:00:03.933Z,1.20
2023-03-26T01:00:24.990Z,1.40
2023-03-26T01:00:46.829Z,1.20
2023-03-26T01:01:08.010Z,1.20
2023-03-26T01:01:29.397Z,1.10
2023-03-26T01:01:50.550Z,1.10
2023-03-26T01:02:13.437Z,1.20
2023-03-26T01:02:34.632Z,1.30
2023-03-26T01:02:55.831Z,1.70
2023-03-26T01:03:28.175Z,1.20
2023-03-26T01:03:53.232Z,1.20
2023-03-26T01:04:11.019Z,1.20
2023-03-26T01:04:32.309Z,1.30
2023-03-26T01:04:53.510Z,1.40
2023-03-26T01:05:14.655Z,1.20
2023-03-26T01:05:35.721Z,1.10
2023-03-26T01:05:56.817Z,1.30
2023-03-26T01:06:17.849Z,1.30
2023-03-26T01:06:38.925Z,1.20
2023-03-26T01:06:59.972Z,1.50
2023-03-26T01:07:22.647Z,1.40
2023-03-26T01:07:43.695Z,1.50
2023-03-26T01:08:04.767Z,1.70
2023-03-26T01:08:25.844Z,1.50
2023-03-26T01:08:46.882Z,1.20
2023-03-26T01:09:07.929Z,1.20
2023-03-26T01:09:28.978Z,1.40
2023-03-26T01:09:50.063Z,1.20
2023-03-26T01:10:11.088Z,1.10
2023-03-26T01:10:32.147Z,1.40
2023-03-26T01:10:53.233Z,1.50
2023-03-26T01:11:14.457Z,1.30
2023-03-26T01:11:35.516Z,1.30
2023-03-26T01:11:56.573Z,1.50
2023-03-26T01:12:17.627Z,1.40
2023-03-26T01:12:40.646Z,1.30
2023-03-26T01:13:01.702Z,1.30
2023-03-26T01:13:22.764Z,1.40
2023-03-26T01:13:43.814Z,1.30
2023-03-26T01:14:04.874Z,1.20
2023-03-26T01:14:25.917Z,1.20
2023-03-26T01:14:46.968Z,1.50
2023-03-26T01:15:08.031Z,1.40
2023-03-26T01:15:29.116Z,1.30
2023-03-26T01:15:50.176Z,1.50
2023-03-26T01:16:11.218Z,1.40
2023-03-26T01:16:32.249Z,1.10
2023-03-26T01:16:53.303Z,1.20
2023-03-26T01:17:14.389Z,1.30
2023-03-26T01:17:35.467Z,1.40
2023-03-26T01:17:58.190Z,1.60
2023-03-26T01:18:19.217Z,1.80
2023-03-26T01:18:40.276Z,1.30
2023-03-26T01:19:01.333Z,1.20
2023-03-26T01:19:22.392Z,1.30
2023-03-26T01:19:43.485Z,1.10
2023-03-26T01:20:04.568Z,1.50
2023-03-26T01:20:25.620Z,1.40
2023-03-26T01:20:46.710Z,1.40
2023-03-26T01:21:07.730Z,1.10
2023-03-26T01:21:28.820Z,1.20
2023-03-26T01:21:49.842Z,1.20
2023-03-26T01:22:10.912Z,1.50
2023-03-26T01:22:31.976Z,1.50
2023-03-26T01:22:53.011Z,1.50
2023-03-26T01:23:15.630Z,1.20
2023-03-26T01:23:36.687Z,1.30
2023-03-26T01:23:57.738Z,1.60
2023-03-26T01:24:18.830Z,1.40
2023-03-26T01:24:39.898Z,1.30
2023-03-26T01:25:00.954Z,1.40
2023-03-26T01:25:22.003Z,1.30
2023-03-26T01:25:43.068Z,1.20
2023-03-26T01:26:04.137Z,1.20
2023-03-26T01:26:25.176Z,1.20
2023-03-26T01:26:46.228Z,1.40
2023-03-26T01:27:07.316Z,1.40
2023-03-26T01:27:28.408Z,1.20
2023-03-26T01:27:49.441Z,1.40
2023-03-26T01:28:10.493Z,1.50
2023-03-26T01:28:33.104Z,1.60
2023-03-26T01:28:54.155Z,1.40
2023-03-26T01:29:15.208Z,1.40
2023-03-26T01:29:36.286Z,1.30
2023-03-26T01:29:57.372Z,1.40
2023-03-26T01:30:18.447Z,1.30
2023-03-26T01:30:39.477Z,1.40
2023-03-26T01:31:00.539Z,1.30
2023-03-26T01:31:21.617Z,1.50
2023-03-26T01:31:42.666Z,1.70
2023-03-26T01:32:03.736Z,1.40
2023-03-26T01:32:24.909Z,1.50
2023-03-26T01:32:46.138Z,1.40
2023-03-26T01:33:07.353Z,1.50
2023-03-26T01:33:28.620Z,1.30
2023-03-26T01:33:51.683Z,1.60
2023-03-26T01:34:12.702Z,1.20
2023-03-26T01:34:33.760Z,1.30
2023-03-26T01:34:54.816Z,1.30
2023-03-26T01:35:15.879Z,1.30
2023-03-26T01:35:36.989Z,1.30
2023-03-26T01:35:58.406Z,1.50
2023-03-26T01:36:19.574Z,1.40
2023-03-26T01:36:40.635Z,1.60
2023-03-26T01:37:01.723Z,1.80
2023-03-26T01:37:22.760Z,1.60
2023-03-26T01:37:43.828Z,1.40
2023-03-26T01:38:04.892Z,1.50
2023-03-26T01:38:25.970Z,1.60
2023-03-26T01:38:47.017Z,1.50
2023-03-26T01:39:09.598Z,1.60
2023-03-26T01:39:30.659Z,1.50
2023-03-26T01:39:51.729Z,1.40
2023-03-26T01:40:12.793Z,1.50
2023-03-26T01:40:33.856Z,1.40
2023-03-26T01:40:54.923Z,1.40
2023-03-26T01:41:15.984Z,1.30
2023-03-26T01:41:37.041Z,1.30
2023-03-26T01:41:58.094Z,1.40
2023-03-26T01:42:19.164Z,1.40
2023-03-26T01:42:40.203Z,1.70
2023-03-26T01:43:01.266Z,1.40
2023-03-26T01:43:22.335Z,1.20
2023-03-26T01:43:43.379Z,1.20
2023-03-26T01:44:04.474Z,1.30
2023-03-26T01:44:27.079Z,1.50
2023-03-26T01:44:48.140Z,1.40
2023-03-26T01:45:09.181Z,1.40
2023-03-26T01:45:30.246Z,1.30
2023-03-26T01:45:51.342Z,1.30
2023-03-26T01:46:12.431Z,1.20
2023-03-26T01:46:33.518Z,1.20
2023-03-26T01:46:54.590Z,1.50
2023-03-26T01:47:15.670Z,1.70
2023-03-26T01:47:36.742Z,1.50
2023-03-26T01:47:57.820Z,1.50
2023-03-26T01:48:18.876Z,1.60
2023-03-26T01:48:39.935Z,1.50
2023-03-26T01:49:00.987Z,1.60
2023-03-26T01:49:22.039Z,1.50
2023-03-26T01:49:45.379Z,1.50
2023-03-26T01:50:06.428Z,1.70
2023-03-26T01:50:27.480Z,1.50
2023-03-26T01:50:48.533Z,1.70
2023-03-26T01:51:09.641Z,1.40
2023-03-26T01:51:30.686Z,1.50
2023-03-26T01:51:51.716Z,2.00
2023-03-26T01:52:12.776Z,1.50
2023-03-26T01:52:33.835Z,1.30
2023-03-26T01:52:54.946Z,1.60
2023-03-26T01:53:15.976Z,1.50
2023-03-26T01:53:37.026Z,1.30
2023-03-26T01:53:58.075Z,1.30
2023-03-26T01:54:19.133Z,1.20
2023-03-26T01:54:40.213Z,1.30
2023-03-26T01:55:03.359Z,1.70
2023-03-26T01:55:24.436Z,1.70
2023-03-26T01:55:45.487Z,1.60
2023-03-26T01:56:06.558Z,1.50
2023-03-26T01:56:27.603Z,1.50
2023-03-26T01:56:48.690Z,1.50
2023-03-26T01:57:09.765Z,1.70
2023-03-26T01:57:30.806Z,1.50
2023-03-26T01:57:51.865Z,1.20
2023-03-26T01:58:12.926Z,1.20
2023-03-26T01:58:33.971Z,1.40
2023-03-26T01:58:55.058Z,1.50
2023-03-26T01:59:16.128Z,1.50
2023-03-26T01:59:37.172Z,1.70
2023-03-26T01:59:58.231Z,1.60
2023-03-26T02:00:19.297Z,1.60
2023-03-26T02:00:40.383Z,1.70
2023-03-26T02:01:01.425Z,1.50
2023-03-26T02:01:22.495Z,1.30
2023-03-26T02:01:43.659Z,2.00
2023-03-26T02:02:04.865Z,1.70
2023-03-26T02:02:26.167Z,1.70
2023-03-26T02:02:47.558Z,1.80
2023-03-26T02:03:08.819Z,1.90
2023-03-26T02:03:30.049Z,1.60
2023-03-26T02:03:51.256Z,1.60
2023-03-26T02:04:12.303Z,1.30
2023-03-26T02:04:33.406Z,1.40
2023-03-26T02:04:54.451Z,1.40
2023-03-26T02:05:15.512Z,1.50
2023-03-26T02:05:36.644Z,1.50
2023-03-26T02:05:57.665Z,1.40
2023-03-26T02:06:18.745Z,1.70
2023-03-26T02:06:39.794Z,1.50
2023-03-26T02:07:00.825Z,1.60
2023-03-26T02:07:21.883Z,1.40
2023-03-26T02:07:42.936Z,1.60
2023-03-26T02:08:03.998Z,1.60
2023-03-26T02:08:25.075Z,1.70
2023-03-26T02:08:46.103Z,1.60
2023-03-26T02:09:07.172Z,1.60
2023-03-26T02:09:28.204Z,1.40
2023-03-26T02:09:49.269Z,1.50
2023-03-26T02:10:10.326Z,1.80
2023-03-26T02:10:31.380Z,1.70
2023-03-26T02:10:52.449Z,1.40
2023-03-26T02:11:13.510Z,1.40
2023-03-26T02:11:35.929Z,1.50
2023-03-26T02:11:57.192Z,1.50
2023-03-26T02:12:18.255Z,1.50
2023-03-26T02:12:39.326Z,1.60
2023-03-26T02:13:00.367Z,1.70
2023-03-26T02:13:21.417Z,1.80
2023-03-26T02:13:42.486Z,1.50
2023-03-26T02:14:03.537Z,1.60
2023-03-26T02:14:24.592Z,1.60
2023-03-26T02:14:45.627Z,1.50
2023-03-26T02:15:06.694Z,1.40
2023-03-26T02:15:27.732Z,1.40
2023-03-26T02:15:48.810Z,1.40
2023-03-26T02:16:09.958Z,1.60
2023-03-26T02:16:31.031Z,1.70
2023-03-26T02:16:52.058Z,1.60
2023-03-26T02:17:13.113Z,1.60
2023-03-26T02:17:34.276Z,1.90
2023-03-26T02:17:55.342Z,1.80
2023-03-26T02:18:16.582Z,1.60
2023-03-26T02:18:37.648Z,1.70
2023-03-26T02:18:58.702Z,1.70
2023-03-26T02:19:20.358Z,1.60
2023-03-26T02:19:41.387Z,1.70
2023-03-26T02:20:02.449Z,1.50
2023-03-26T02:20:23.504Z,1.50
2023-03-26T02:20:44.547Z,1.60
2023-03-26T02:21:05.615Z,1.40
2023-03-26T02:21:26.844Z,1.30
2023-03-26T02:21:47.878Z,1.60
2023-03-26T02:22:08.934Z,1.60
2023-03-26T02:22:30.079Z,1.70
2023-03-26T02:22:51.155Z,1.60
2023-03-26T02:23:12.219Z,1.10
2023-03-26T02:23:33.261Z,1.30
2023-03-26T02:23:54.329Z,1.30
2023-03-26T02:24:15.376Z,1.50
2023-03-26T02:24:36.426Z,1.60
2023-03-26T02:24:57.509Z,1.50
2023-03-26T02:25:18.574Z,1.60
2023-03-26T02:25:39.623Z,1.70
2023-03-26T02:26:00.682Z,1.50
2023-03-26T02:26:21.745Z,1.40
2023-03-26T02:26:42.803Z,1.60
2023-03-26T02:27:03.849Z,1.50
2023-03-26T02:27:24.915Z,1.50
2023-03-26T02:27:45.977Z,1.30
2023-03-26T02:28:07.012Z,1.40
2023-03-26T02:28:28.087Z,1.40
2023-03-26T02:28:49.131Z,1.40
2023-03-26T02:29:10.189Z,1.60
2023-03-26T02:29:31.274Z,1.90
2023-03-26T02:29:52.288Z,1.50
2023-03-26T02:30:13.350Z,1.60
2023-03-26T02:30:34.417Z,1.70
2023-03-26T02:30:55.470Z,1.80
2023-03-26T02:31:16.580Z,2.00
2023-03-26T02:31:37.672Z,1.60
2023-03-26T02:31:58.876Z,1.70
2023-03-26T02:32:19.939Z,2.10
2023-03-26T02:32:40.988Z,2.00
2023-03-26T02:33:02.056Z,1.60
2023-03-26T02:33:23.100Z,1.50
2023-03-26T02:33:44.156Z,1.60
2023-03-26T02:34:05.210Z,1.90
2023-03-26T02:34:26.270Z,1.70
2023-03-26T02:34:47.332Z,1.60
2023-03-26T02:35:08.422Z,1.40
2023-03-26T02:35:29.530Z,1.30
2023-03-26T02:35:50.700Z,1.60
2023-03-26T02:36:11.892Z,1.60
2023-03-26T02:36:33.054Z,1.60
2023-03-26T02:36:54.219Z,1.50
2023-03-26T02:37:15.290Z,1.60
2023-03-26T02:37:36.350Z,1.30
2023-03-26T02:37:57.437Z,1.50
2023-03-26T02:38:18.505Z,1.30
2023-03-26T02:38:39.560Z,1.60
2023-03-26T02:39:00.621Z,1.80
2023-03-26T02:39:21.674Z,1.90
2023-03-26T02:39:42.734Z,1.80
2023-03-26T02:40:03.793Z,1.60
2023-03-26T02:40:24.855Z,1.50
2023-03-26T02:40:45.929Z,1.50
2023-03-26T02:41:06.965Z,1.50
2023-03-26T02:41:28.071Z,1.60
2023-03-26T02:41:49.116Z,1.80
2023-03-26T02:42:10.181Z,2.00
2023-03-26T02:42:31.265Z,1.90
2023-03-26T02:42:52.362Z,1.90
2023-03-26T02:43:13.385Z,1.50
2023-03-26T02:43:34.466Z,1.60
2023-03-26T02:43:55.526Z,1.70
2023-03-26T02:44:16.573Z,1.60
2023-03-26T02:44:37.634Z,1.50
2023-03-26T02:44:58.677Z,1.70
2023-03-26T02:45:19.762Z,1.70
2023-03-26T02:45:40.840Z,1.40
2023-03-26T02:46:01.913Z,1.60
2023-03-26T02:46:23.047Z,2.00
2023-03-26T02:46:44.078Z,1.80
2023-03-26T02:47:05.189Z,1.50
2023-03-26T02:47:26.249Z,1.40
2023-03-26T02:47:47.351Z,1.60
2023-03-26T02:48:08.419Z,1.50
2023-03-26T02:48:29.469Z,1.40
2023-03-26T02:48:50.558Z,1.60
2023-03-26T02:49:11.603Z,1.80
2023-03-26T02:49:32.672Z,1.90
2023-03-26T02:49:53.753Z,1.40
2023-03-26T02:50:14.769Z,1.50
2023-03-26T02:50:35.842Z,1.80
2023-03-26T02:50:56.913Z,1.60
2023-03-26T02:51:17.956Z,1.60
2023-03-26T02:51:39.032Z,1.90
2023-03-26T02:52:00.060Z,1.70
2023-03-26T02:52:21.112Z,1.40
2023-03-26T02:52:42.185Z,1.70
2023-03-26T02:53:03.279Z,1.80
2023-03-26T02:53:24.363Z,1.70
2023-03-26T02:53:45.384Z,1.60
2023-03-26T02:54:06.425Z,1.50
2023-03-26T02:54:27.510Z,1.60
2023-03-26T02:54:48.579Z,1.40
2023-03-26T02:55:09.753Z,1.40
2023-03-26T02:55:30.768Z,1.50
2023-03-26T02:55:52.180Z,1.70
2023-03-26T02:56:13.349Z,1.70
2023-03-26T02:56:34.421Z,1.70
2023-03-26T02:56:55.532Z,1.60
2023-03-26T02:57:16.608Z,1.70
2023-03-26T02:57:37.647Z,1.70
2023-03-26T02:57:58.707Z,1.60
2023-03-26T02:58:19.780Z,1.90
2023-03-26T02:58:40.836Z,1.50
2023-03-26T02:59:01.901Z,1.40
2023-03-26T02:59:22.933Z,1.70
2023-03-26T02:59:43.991Z,1.60
2023-03-26T03:00:05.091Z,1.50
2023-03-26T03:00:26.132Z,1.70
2023-03-26T03:00:47.302Z,2.00
2023-03-26T03:01:08.469Z,1.70
2023-03-26T03:01:29.564Z,1.60
2023-03-26T03:01:50.617Z,1.40
2023-03-26T03:02:11.682Z,1.60
2023-03-26T03:02:32.753Z,1.70
2023-03-26T03:02:53.873Z,1.60
2023-03-26T03:03:15.045Z,1.60
2023-03-26T03:03:36.236Z,1.60
2023-03-26T03:03:57.335Z,1.50
2023-03-26T03:04:18.389Z,1.50
2023-03-26T03:04:39.434Z,1.50
2023-03-26T03:05:00.498Z,1.50
2023-03-26T03:05:21.566Z,1.60
2023-03-26T03:05:42.621Z,1.40
2023-03-26T03:06:03.674Z,1.50
2023-03-26T03:06:24.710Z,1.30
2023-03-26T03:06:45.803Z,1.50
2023-03-26T03:07:06.842Z,1.60
2023-03-26T03:07:27.893Z,1.30
2023-03-26T03:07:48.946Z,1.30
2023-03-26T03:08:10.001Z,1.70
2023-03-26T03:08:31.064Z,1.50
2023-03-26T03:08:52.122Z,1.40
2023-03-26T03:09:13.179Z,1.40
2023-03-26T03:09:34.229Z,1.70
2023-03-26T03:09:55.278Z,1.50
2023-03-26T03:10:16.337Z,1.60
2023-03-26T03:10:37.400Z,1.80
2023-03-26T03:10:58.448Z,1.60
2023-03-26T03:11:19.525Z,1.60
2023-03-26T03:11:40.581Z,1.50
2023-03-26T03:12:01.620Z,1.40
2023-03-26T03:12:22.676Z,1.40
2023-03-26T03:12:43.739Z,1.70
2023-03-26T03:13:04.778Z,2.00
2023-03-26T03:13:25.866Z,1.60
2023-03-26T03:13:47.136Z,1.50
2023-03-26T03:14:08.193Z,1.70
2023-03-26T03:14:29.242Z,1.90
2023-03-26T03:14:50.290Z,1.90
2023-03-26T03:15:11.362Z,1.50
2023-03-26T03:15:32.413Z,1.40
2023-03-26T03:15:53.710Z,1.70
2023-03-26T03:16:14.888Z,1.50
2023-03-26T03:16:35.955Z,1.50
2023-03-26T03:16:57.078Z,1.50
2023-03-26T03:17:18.096Z,1.50
2023-03-26T03:17:39.198Z,1.50
2023-03-26T03:18:00.253Z,1.70
2023-03-26T03:18:21.297Z,1.50
2023-03-26T03:18:42.370Z,1.70
2023-03-26T03:19:03.419Z,1.80
2023-03-26T03:19:24.516Z,1.60
2023-03-26T03:19:45.561Z,1.40
2023-03-26T03:20:06.612Z,1.50
2023-03-26T03:20:27.668Z,1.50
2023-03-26T03:20:48.724Z,1.50
2023-03-26T03:21:09.810Z,1.40
2023-03-26T03:21:30.890Z,1.40
2023-03-26T03:21:51.911Z,1.60
2023-03-26T03:22:13.206Z,1.50
2023-03-26T03:22:34.265Z,1.30
2023-03-26T03:22:55.326Z,1.60
2023-03-26T03:23:16.400Z,1.40
2023-03-26T03:23:37.438Z,1.50
2023-03-26T03:24:00.261Z,1.40
2023-03-26T03:24:21.567Z,1.50
2023-03-26T03:24:42.753Z,1.60
2023-03-26T03:25:03.826Z,1.50
2023-03-26T03:25:24.865Z,1.50
2023-03-26T03:25:45.919Z,1.60
2023-03-26T03:26:06.982Z,1.60
2023-03-26T03:26:28.034Z,1.70
2023-03-26T03:26:49.095Z,1.40
2023-03-26T03:27:10.154Z,1.50
2023-03-26T03:27:31.223Z,1.60
2023-03-26T03:27:52.260Z,1.60
2023-03-26T03:28:13.326Z,1.90
2023-03-26T03:28:34.389Z,1.60
2023-03-26T03:28:55.443Z,1.60
2023-03-26T03:29:16.480Z,1.80
2023-03-26T03:29:37.532Z,1.40
2023-03-26T03:29:58.751Z,1.60
2023-03-26T03:30:19.818Z,1.50
2023-03-26T03:30:40.950Z,1.30
2023-03-26T03:31:02.019Z,1.60
2023-03-26T03:31:23.220Z,1.60
2023-03-26T03:31:44.301Z,1.60
2023-03-26T03:32:05.364Z,1.70
2023-03-26T03:32:26.468Z,1.60
2023-03-26T03:32:47.598Z,1.60
2023-03-26T03:33:08.708Z,1.60
2023-03-26T03:33:29.737Z,1.50
2023-03-26T03:33:50.796Z,1.70
2023-03-26T03:34:11.853Z,1.60
2023-03-26T03:34:32.947Z,1.70
2023-03-26T03:34:53.982Z,1.50
2023-03-26T03:35:15.061Z,1.30
2023-03-26T03:35:36.128Z,1.40
2023-03-26T03:35:57.397Z,1.50
2023-03-26T03:36:21.048Z,1.70
2023-03-26T03:36:42.864Z,1.70
2023-03-26T03:37:03.935Z,1.70
2023-03-26T03:37:24.973Z,1.80
2023-03-26T03:37:46.021Z,1.60
2023-03-26T03:38:07.079Z,1.70
2023-03-26T03:38:28.136Z,1.70
2023-03-26T03:38:49.176Z,1.60
2023-03-26T03:39:10.223Z,1.50
2023-03-26T03:39:31.282Z,1.60
2023-03-26T03:39:52.340Z,1.80
2023-03-26T03:40:13.409Z,1.40
2023-03-26T03:40:34.607Z,1.60
2023-03-26T03:40:55.662Z,1.40
2023-03-26T03:41:16.729Z,1.60
2023-03-26T03:41:38.012Z,1.60
2023-03-26T03:41:59.044Z,1.50
2023-03-26T03:42:20.115Z,1.50
2023-03-26T03:42:41.201Z,1.90
2023-03-26T03:43:02.242Z,1.80
2023-03-26T03:43:23.384Z,1.60
2023-03-26T03:43:44.405Z,1.50
2023-03-26T03:44:05.477Z,1.80
2023-03-26T03:44:26.559Z,1.50
2023-03-26T03:44:47.671Z,1.90
2023-03-26T03:45:08.706Z,1.70
2023-03-26T03:45:29.753Z,1.90
2023-03-26T03:45:50.871Z,1.80
2023-03-26T03:46:12.009Z,1.80
2023-03-26T03:46:33.100Z,1.70
2023-03-26T03:46:54.122Z,1.60
2023-03-26T03:47:15.193Z,1.70
2023-03-26T03:47:36.379Z,2.00
2023-03-26T03:47:57.444Z,1.90
2023-03-26T03:48:18.499Z,1.60
2023-03-26T03:48:39.564Z,1.60
2023-03-26T03:49:00.629Z,1.60
2023-03-26T03:49:21.683Z,1.50
2023-03-26T03:49:42.741Z,1.60
2023-03-26T03:50:03.788Z,1.50
2023-03-26T03:50:24.846Z,1.60
2023-03-26T03:50:45.912Z,1.60
2023-03-26T03:51:06.983Z,1.50
2023-03-26T03:51:28.047Z,1.60
2023-03-26T03:51:49.109Z,1.70
2023-03-26T03:52:10.186Z,1.80
2023-03-26T03:52:31.215Z,1.70
2023-03-26T03:52:52.277Z,1.80
2023-03-26T03:53:13.329Z,1.70
2023-03-26T03:53:34.379Z,1.60
2023-03-26T03:53:55.441Z,1.70
2023-03-26T03:54:16.497Z,1.80
2023-03-26T03:54:37.584Z,1.80
2023-03-26T03:54:58.630Z,1.50
2023-03-26T03:55:19.689Z,1.50
2023-03-26T03:55:40.740Z,1.40
2023-03-26T03:56:01.786Z,1.40
2023-03-26T03:56:22.872Z,1.50
2023-03-26T03:56:43.964Z,1.50
2023-03-26T03:57:05.021Z,1.70
2023-03-26T03:57:26.063Z,1.60
2023-03-26T03:57:47.129Z,1.60
2023-03-26T03:58:08.160Z,1.70
2023-03-26T03:58:29.218Z,1.80
2023-03-26T03:58:50.266Z,1.80
2023-03-26T03:59:11.348Z,1.80
2023-03-26T03:59:32.376Z,1.90
2023-03-26T03:59:53.475Z,1.70
2023-03-26T04:00:14.499Z,1.50
2023-03-26T04:00:35.559Z,1.60
2023-03-26T04:00:56.607Z,1.50
2023-03-26T04:01:17.671Z,1.60
2023-03-26T04:01:38.887Z,1.80
2023-03-26T04:02:00.021Z,1.50
2023-03-26T04:02:21.230Z,1.50
2023-03-26T04:02:42.574Z,1.80
2023-03-26T04:03:03.910Z,1.90
2023-03-26T04:03:33.364Z,1.80
2023-03-26T04:03:52.039Z,1.80
2023-03-26T04:04:13.220Z,1.60
2023-03-26T04:04:34.413Z,1.70
2023-03-26T04:04:55.497Z,1.40
2023-03-26T04:05:16.564Z,1.30
2023-03-26T04:05:37.648Z,1.40
2023-03-26T04:05:58.697Z,1.70
2023-03-26T04:06:19.787Z,1.70
2023-03-26T04:06:40.875Z,1.50
2023-03-26T04:07:01.920Z,1.70
2023-03-26T04:07:22.989Z,1.80
2023-03-26T04:07:44.036Z,1.70
2023-03-26T04:08:05.199Z,1.70
2023-03-26T04:08:26.245Z,1.60
2023-03-26T04:08:47.345Z,1.80
2023-03-26T04:09:08.367Z,1.60
2023-03-26T04:09:29.419Z,1.60
2023-03-26T04:09:50.472Z,1.50
2023-03-26T04:10:11.578Z,1.60
2023-03-26T04:10:32.621Z,1.50
2023-03-26T04:10:53.715Z,1.80
2023-03-26T04:11:14.764Z,1.70
2023-03-26T04:11:35.802Z,1.60
2023-03-26T04:11:56.883Z,1.70
2023-03-26T04:12:17.936Z,1.60
2023-03-26T04:12:39.003Z,1.90
2023-03-26T04:13:00.054Z,1.60
2023-03-26T04:13:21.104Z,1.90
2023-03-26T04:13:42.185Z,2.30
2023-03-26T04:14:03.236Z,2.10
2023-03-26T04:14:24.338Z,1.70
2023-03-26T04:14:45.424Z,1.80
2023-03-26T04:15:06.461Z,1.70
2023-03-26T04:15:27.518Z,1.70
2023-03-26T04:15:48.643Z,1.50
2023-03-26T04:16:09.722Z,1.50
2023-03-26T04:16:30.933Z,1.60
2023-03-26T04:16:52.060Z,1.70
2023-03-26T04:17:13.145Z,1.80
2023-03-26T04:17:34.234Z,1.70
2023-03-26T04:17:55.494Z,1.70
2023-03-26T04:18:16.562Z,1.70
2023-03-26T04:18:37.597Z,1.90
2023-03-26T04:18:58.680Z,1.70
2023-03-26T04:19:19.724Z,1.80
2023-03-26T04:19:40.789Z,1.70
2023-03-26T04:20:01.844Z,1.60
2023-03-26T04:20:22.925Z,1.70
2023-03-26T04:20:43.961Z,1.70
2023-03-26T04:21:05.016Z,1.50
2023-03-26T04:21:26.068Z,1.60
2023-03-26T04:21:47.151Z,1.70
2023-03-26T04:22:08.188Z,1.50
2023-03-26T04:22:29.285Z,1.40
2023-03-26T04:22:50.319Z,1.60
2023-03-26T04:23:11.389Z,1.60
2023-03-26T04:23:32.459Z,1.90
2023-03-26T04:23:53.507Z,2.10
2023-03-26T04:24:14.565Z,1.70
2023-03-26T04:24:35.612Z,2.10
2023-03-26T04:24:56.669Z,1.80
2023-03-26T04:25:17.745Z,1.60
2023-03-26T04:25:38.790Z,1.60
2023-03-26T04:25:59.853Z,1.90
2023-03-26T04:26:20.906Z,1.60
2023-03-26T04:26:41.941Z,2.00
2023-03-26T04:27:03.005Z,1.50
2023-03-26T04:27:24.057Z,1.70
2023-03-26T04:27:45.150Z,2.00
2023-03-26T04:28:06.206Z,1.70
2023-03-26T04:28:27.268Z,1.90
2023-03-26T04:28:48.311Z,1.90
2023-03-26T04:29:09.405Z,1.90
2023-03-26T04:29:30.464Z,1.80
2023-03-26T04:29:51.505Z,2.00
2023-03-26T04:30:12.556Z,1.80
2023-03-26T04:30:33.630Z,1.70
2023-03-26T04:30:54.678Z,1.80
2023-03-26T04:31:15.796Z,1.70
2023-03-26T04:31:36.940Z,1.70
2023-03-26T04:31:58.027Z,2.20
2023-03-26T04:32:19.079Z,1.80
2023-03-26T04:32:40.228Z,2.00
2023-03-26T04:33:01.307Z,2.00
2023-03-26T04:33:22.405Z,1.80
2023-03-26T04:33:43.440Z,1.70
2023-03-26T04:34:04.501Z,1.70
2023-03-26T04:34:25.577Z,1.70
2023-03-26T04:34:46.621Z,1.80
2023-03-26T04:35:07.692Z,1.80
2023-03-26T04:35:28.815Z,1.60
2023-03-26T04:35:49.927Z,1.50
2023-03-26T04:36:11.013Z,1.90
2023-03-26T04:36:32.073Z,1.90
2023-03-26T04:36:53.101Z,1.60
2023-03-26T04:37:14.170Z,2.20
2023-03-26T04:37:35.256Z,1.90
2023-03-26T04:37:56.279Z,1.80
2023-03-26T04:38:17.353Z,2.20
2023-03-26T04:38:38.439Z,2.00
2023-03-26T04:38:59.467Z,1.70
2023-03-26T04:39:20.525Z,1.90
2023-03-26T04:39:41.610Z,1.80
2023-03-26T04:40:02.648Z,1.70
2023-03-26T04:40:23.710Z,1.40
2023-03-26T04:40:44.760Z,1.60
2023-03-26T04:41:05.835Z,1.70
2023-03-26T04:41:26.887Z,1.70
2023-03-26T04:41:47.936Z,1.60